createdAt,value
2017-09-28T00:00:21.334Z,12.07
2017-09-28T00:05:23.953Z,12.87
2017-09-28T00:10:26.615Z,13.33
2017-09-28T00:15:29.233Z,13.10
2017-09-28T00:20:31.855Z,13.50
2017-09-28T00:25:34.499Z,12.87
2017-09-28T00:30:37.134Z,12.90
2017-09-28T00:35:39.770Z,13.30
2017-09-28T00:40:42.376Z,13.37
2017-09-28T00:45:45.001Z,13.13
2017-09-28T00:50:47.609Z,12.77
2017-09-28T00:55:50.228Z,12.90
2017-09-28T01:00:52.831Z,12.63
2017-09-28T01:05:55.462Z,13.40
2017-09-28T01:10:58.058Z,13.40
2017-09-28T01:16:00.667Z,12.67
2017-09-28T01:21:03.279Z,14.53
2017-09-28T01:26:05.889Z,14.47
2017-09-28T01:31:09.281Z,13.70
2017-09-28T01:36:11.897Z,15.40
2017-09-28T01:41:14.499Z,14.60
2017-09-28T01:46:17.873Z,12.10
2017-09-28T01:51:20.485Z,13.90
2017-09-28T01:56:23.109Z,14.07
2017-09-28T02:01:25.730Z,14.80
2017-09-28T02:06:28.342Z,14.70
2017-09-28T02:11:30.975Z,14.00
2017-09-28T02:16:33.582Z,13.30
2017-09-28T02:21:36.205Z,13.47
2017-09-28T02:26:38.828Z,13.30
2017-09-28T02:31:42.206Z,11.63
2017-09-28T02:36:44.807Z,12.60
2017-09-28T02:41:47.431Z,14.03
2017-09-28T02:46:50.032Z,12.80
2017-09-28T02:51:52.620Z,12.10
2017-09-28T02:56:55.250Z,13.63
2017-09-28T03:01:58.611Z,13.53
2017-09-28T03:07:01.229Z,15.63
2017-09-28T03:12:03.851Z,12.40
2017-09-28T03:17:06.478Z,15.00
2017-09-28T03:22:09.109Z,13.70
2017-09-28T03:27:11.722Z,13.90
2017-09-28T03:32:14.327Z,14.60
2017-09-28T03:37:16.959Z,13.13
2017-09-28T03:42:19.569Z,15.30
2017-09-28T03:47:22.165Z,13.40
2017-09-28T03:52:24.771Z,17.60
2017-09-28T03:57:27.390Z,13.70
2017-09-28T04:02:29.993Z,14.20
2017-09-28T04:07:32.595Z,14.67
2017-09-28T04:12:36.005Z,13.67
2017-09-28T04:17:38.610Z,13.67
2017-09-28T04:22:41.214Z,11.33
2017-09-28T04:27:43.826Z,14.63
2017-09-28T04:32:46.469Z,12.50
2017-09-28T04:37:49.838Z,12.83
2017-09-28T04:42:52.451Z,12.93
2017-09-28T04:47:55.147Z,13.13
2017-09-28T04:52:57.787Z,11.10
2017-09-28T04:58:01.196Z,10.30
2017-09-28T05:03:03.828Z,12.47
2017-09-28T05:08:06.470Z,13.33
2017-09-28T05:13:09.090Z,13.37
2017-09-28T05:18:11.720Z,13.60
2017-09-28T05:23:14.343Z,12.90
2017-09-28T05:28:16.977Z,13.23
2017-09-28T05:33:19.606Z,11.90
2017-09-28T05:38:22.257Z,13.30
2017-09-28T05:43:24.914Z,14.87
2017-09-28T05:48:27.569Z,13.03
2017-09-28T05:53:30.210Z,15.60
2017-09-28T05:58:32.838Z,15.87
2017-09-28T06:03:35.482Z,15.83
2017-09-28T06:08:38.109Z,13.83
2017-09-28T06:13:41.514Z,15.20
2017-09-28T06:18:44.155Z,13.67
2017-09-28T06:23:46.794Z,13.17
2017-09-28T06:28:49.454Z,14.37
2017-09-28T06:33:52.099Z,15.30
2017-09-28T06:38:54.741Z,15.30
2017-09-28T06:43:57.374Z,15.17
2017-09-28T06:49:00.014Z,15.57
2017-09-28T06:54:02.663Z,13.57
2017-09-28T06:59:05.330Z,16.43
2017-09-28T07:04:07.970Z,15.43
2017-09-28T07:09:10.605Z,15.30
2017-09-28T07:14:13.270Z,15.23
2017-09-28T07:19:15.936Z,15.03
2017-09-28T07:24:18.618Z,17.50
2017-09-28T07:29:21.260Z,18.77
2017-09-28T07:34:23.886Z,17.10
2017-09-28T07:39:26.785Z,22.00
2017-09-28T07:44:29.394Z,21.40
2017-09-28T07:49:32.062Z,23.83
2017-09-28T07:54:35.434Z,21.63
2017-09-28T07:59:38.022Z,26.77
2017-09-28T08:04:40.674Z,25.00
2017-09-28T08:09:43.316Z,23.60
2017-09-28T08:14:45.953Z,24.10
2017-09-28T08:19:48.589Z,25.37
2017-09-28T08:24:51.219Z,24.20
2017-09-28T08:29:59.564Z,21.80
2017-09-28T08:35:02.959Z,26.63
2017-09-28T08:40:06.382Z,28.90
2017-09-28T08:45:09.047Z,28.90
2017-09-28T08:50:12.458Z,26.97
2017-09-28T08:55:15.103Z,30.37
2017-09-28T09:00:17.744Z,29.47
2017-09-28T09:05:21.138Z,28.77
2017-09-28T09:10:23.768Z,27.80
2017-09-28T09:15:26.406Z,30.93
2017-09-28T09:20:29.068Z,26.97
2017-09-28T09:25:31.746Z,29.60
2017-09-28T09:30:34.386Z,28.00
2017-09-28T09:35:37.049Z,30.20
2017-09-28T09:40:39.686Z,30.17
2017-09-28T09:45:42.375Z,28.40
2017-09-28T09:50:45.036Z,31.97
2017-09-28T09:55:47.704Z,34.90
2017-09-28T10:00:50.391Z,32.37
2017-09-28T10:05:53.844Z,31.27
2017-09-28T10:10:59.684Z,32.53
2017-09-28T10:16:04.765Z,27.70
2017-09-28T10:21:07.423Z,30.43
2017-09-28T10:26:10.087Z,31.80
2017-09-28T10:31:12.766Z,31.03
2017-09-28T10:36:16.072Z,32.90
2017-09-28T10:41:18.758Z,29.30
2017-09-28T10:46:21.456Z,31.67
2017-09-28T10:51:24.889Z,32.40
2017-09-28T10:56:27.563Z,30.57
2017-09-28T11:01:30.209Z,29.30
2017-09-28T11:06:32.841Z,31.97
2017-09-28T11:11:35.500Z,32.77
2017-09-28T11:16:38.154Z,30.17
2017-09-28T11:21:41.646Z,33.20
2017-09-28T11:26:44.332Z,32.27
2017-09-28T11:31:46.976Z,33.70
2017-09-28T11:36:49.608Z,32.17
2017-09-28T11:41:52.273Z,34.60
2017-09-28T11:46:54.938Z,34.43
2017-09-28T11:51:57.569Z,38.23
2017-09-28T11:57:00.216Z,37.57
2017-09-28T12:02:02.840Z,38.50
2017-09-28T12:07:05.500Z,40.37
2017-09-28T12:12:08.166Z,40.57
2017-09-28T12:17:10.814Z,40.00
2017-09-28T12:22:13.435Z,41.47
2017-09-28T12:27:16.052Z,39.97
2017-09-28T12:32:18.661Z,41.70
2017-09-28T12:37:21.345Z,42.13
2017-09-28T12:42:24.019Z,40.97
2017-09-28T12:47:26.675Z,39.93
2017-09-28T12:52:29.290Z,40.97
2017-09-28T12:57:31.914Z,39.87
2017-09-28T13:02:34.555Z,42.40
2017-09-28T13:07:37.265Z,41.20
2017-09-28T13:12:39.920Z,39.53
2017-09-28T13:17:42.575Z,40.80
2017-09-28T13:22:45.202Z,42.70
2017-09-28T13:27:48.627Z,42.20
2017-09-28T13:32:51.305Z,47.63
2017-09-28T13:37:53.959Z,48.50
2017-09-28T13:42:56.634Z,59.60
2017-09-28T13:47:59.337Z,55.33
2017-09-28T13:53:01.987Z,44.20
2017-09-28T13:58:04.668Z,41.47
2017-09-28T14:03:07.315Z,38.57
2017-09-28T14:08:09.965Z,36.57
2017-09-28T14:13:12.587Z,38.03
2017-09-28T14:18:15.270Z,37.30
2017-09-28T14:23:17.918Z,40.17
2017-09-28T14:28:20.519Z,40.43
2017-09-28T14:33:23.150Z,38.97
2017-09-28T14:38:25.823Z,35.70
2017-09-28T14:43:28.501Z,36.20
2017-09-28T14:48:31.159Z,34.97
2017-09-28T14:53:33.772Z,38.13
2017-09-28T14:58:36.422Z,36.20
2017-09-28T15:03:39.038Z,33.97
2017-09-28T15:08:42.464Z,32.80
2017-09-28T15:13:45.874Z,29.47
2017-09-28T15:18:48.521Z,26.50
2017-09-28T15:23:51.168Z,33.00
2017-09-28T15:28:53.855Z,31.93
2017-09-28T15:33:56.458Z,34.00
2017-09-28T15:39:00.274Z,32.30
2017-09-28T15:44:02.901Z,32.43
2017-09-28T15:49:05.571Z,31.10
2017-09-28T15:54:08.218Z,28.97
2017-09-28T15:59:11.637Z,30.47
2017-09-28T16:04:14.304Z,28.07
2017-09-28T16:09:16.931Z,30.03
2017-09-28T16:14:20.475Z,28.90
2017-09-28T16:19:23.129Z,30.60
2017-09-28T16:24:25.749Z,28.57
2017-09-28T16:29:29.139Z,29.27
2017-09-28T16:34:33.358Z,27.17
2017-09-28T16:39:36.008Z,27.20
2017-09-28T16:44:39.408Z,27.03
2017-09-28T16:49:42.108Z,28.13
2017-09-28T16:54:44.777Z,27.53
2017-09-28T16:59:48.411Z,25.43
2017-09-28T17:04:51.805Z,24.87
2017-09-28T17:09:54.550Z,23.23
2017-09-28T17:14:57.262Z,24.30
2017-09-28T17:19:59.893Z,24.53
2017-09-28T17:25:02.521Z,23.80
2017-09-28T17:30:05.167Z,25.37
2017-09-28T17:35:07.822Z,25.50
2017-09-28T17:40:10.530Z,31.80
2017-09-28T17:45:13.122Z,35.03
2017-09-28T17:50:15.715Z,45.83
2017-09-28T17:55:18.259Z,28.73
2017-09-28T18:00:20.875Z,29.63
2017-09-28T18:05:23.528Z,23.20
2017-09-28T18:10:26.112Z,23.90
2017-09-28T18:15:28.736Z,24.80
2017-09-28T18:20:31.356Z,25.60
2017-09-28T18:25:33.929Z,25.07
2017-09-28T18:30:36.544Z,26.47
2017-09-28T18:35:39.154Z,27.20
2017-09-28T18:40:41.743Z,26.37
2017-09-28T18:45:44.355Z,26.77
2017-09-28T18:50:46.980Z,24.43
2017-09-28T18:55:49.622Z,26.40
2017-09-28T19:00:52.328Z,27.90
2017-09-28T19:05:54.927Z,29.40
2017-09-28T19:10:57.542Z,28.60
2017-09-28T19:16:00.213Z,28.90
2017-09-28T19:21:02.957Z,28.63
2017-09-28T19:26:05.655Z,33.43
2017-09-28T19:31:08.292Z,31.07
2017-09-28T19:36:11.666Z,28.67
2017-09-28T19:41:14.305Z,31.57
2017-09-28T19:46:16.920Z,27.13
2017-09-28T19:51:20.272Z,29.30
2017-09-28T19:56:22.958Z,28.67
2017-09-28T20:01:25.613Z,28.83
2017-09-28T20:06:28.295Z,28.60
2017-09-28T20:11:30.915Z,30.87
2017-09-28T20:16:33.506Z,30.60
2017-09-28T20:21:36.144Z,30.00
2017-09-28T20:26:38.745Z,31.30
2017-09-28T20:31:41.340Z,34.17
2017-09-28T20:36:43.948Z,34.13
2017-09-28T20:41:46.551Z,30.53
2017-09-28T20:46:49.119Z,30.23
2017-09-28T20:51:51.716Z,29.67
2017-09-28T20:56:55.059Z,30.37
2017-09-28T21:01:57.618Z,31.50
2017-09-28T21:07:00.203Z,32.90
2017-09-28T21:12:02.778Z,32.17
2017-09-28T21:17:05.334Z,33.87
2017-09-28T21:22:07.891Z,33.30
2017-09-28T21:27:10.459Z,32.40
2017-09-28T21:32:13.043Z,33.30
2017-09-28T21:37:15.635Z,30.97
2017-09-28T21:42:18.959Z,32.07
2017-09-28T21:47:21.548Z,29.97
2017-09-28T21:52:24.114Z,28.30
2017-09-28T21:57:26.697Z,31.50
2017-09-28T22:02:29.263Z,31.77
2017-09-28T22:07:31.823Z,30.70
2017-09-28T22:12:34.412Z,30.23
2017-09-28T22:17:36.981Z,32.00
2017-09-28T22:22:39.556Z,32.47
2017-09-28T22:27:42.145Z,31.87
2017-09-28T22:32:44.747Z,31.17
2017-09-28T22:37:48.103Z,30.20
2017-09-28T22:42:50.674Z,27.73
2017-09-28T22:47:53.269Z,28.43
2017-09-28T22:52:55.843Z,25.67
2017-09-28T22:57:59.207Z,31.43
2017-09-28T23:03:01.796Z,29.27
2017-09-28T23:08:04.358Z,27.40
2017-09-28T23:13:06.927Z,26.87
2017-09-28T23:18:09.502Z,27.80
2017-09-28T23:23:12.085Z,25.33
2017-09-28T23:28:14.659Z,26.97
2017-09-28T23:33:17.248Z,27.13
2017-09-28T23:38:19.823Z,26.40
2017-09-28T23:43:22.514Z,25.80
2017-09-28T23:48:25.091Z,27.20
2017-09-28T23:53:27.671Z,25.87
2017-09-28T23:58:30.239Z,25.60
